createdAt,value
2022-07-28T00:01:06.243Z,101110.13
2022-07-28T00:03:07.901Z,101110.00
2022-07-28T00:05:09.885Z,101108.16
2022-07-28T00:07:11.522Z,101103.72
2022-07-28T00:09:13.014Z,101107.25
2022-07-28T00:11:14.520Z,101093.94
2022-07-28T00:13:16.031Z,101092.19
2022-07-28T00:15:18.959Z,101099.19
2022-07-28T00:17:20.475Z,101090.34
2022-07-28T00:19:21.982Z,101099.25
2022-07-28T00:21:23.473Z,101094.88
2022-07-28T00:23:35.855Z,101099.22
2022-07-28T00:25:41.275Z,101091.22
2022-07-28T00:27:42.798Z,101088.56
2022-07-28T00:29:49.917Z,101081.47
2022-07-28T00:31:53.925Z,101082.25
2022-07-28T00:33:55.546Z,101078.81
2022-07-28T00:35:57.059Z,101079.50
2022-07-28T00:38:00.115Z,101075.09
2022-07-28T00:40:02.711Z,101064.34
2022-07-28T00:42:04.256Z,101064.47
2022-07-28T00:44:06.509Z,101063.69
2022-07-28T00:46:08.376Z,101070.69
2022-07-28T00:48:11.362Z,101062.63
2022-07-28T00:50:12.843Z,101061.72
2022-07-28T00:52:14.452Z,101061.13
2022-07-28T00:54:16.392Z,101060.09
2022-07-28T00:56:18.296Z,101052.81
2022-07-28T00:58:19.789Z,101052.97
2022-07-28T01:00:21.587Z,101054.69
2022-07-28T01:02:23.289Z,101060.22
2022-07-28T01:04:26.218Z,101054.00
2022-07-28T01:06:51.452Z,101049.44
2022-07-28T01:08:56.262Z,101047.66
2022-07-28T01:10:59.271Z,101039.66
2022-07-28T01:13:02.861Z,101039.50
2022-07-28T01:15:07.288Z,101035.84
2022-07-28T01:17:09.568Z,101041.31
2022-07-28T01:19:13.288Z,101041.25
2022-07-28T01:21:17.367Z,101034.19
2022-07-28T01:23:29.424Z,101031.44
2022-07-28T01:25:34.388Z,101027.97
2022-07-28T01:27:38.182Z,101035.19
2022-07-28T01:29:48.729Z,101032.59
2022-07-28T01:31:54.408Z,101032.63
2022-07-28T01:33:57.155Z,101034.25
2022-07-28T01:36:01.321Z,101038.66
2022-07-28T01:38:03.807Z,101036.03
2022-07-28T01:40:05.774Z,101034.16
2022-07-28T01:42:07.311Z,101032.50
2022-07-28T01:44:10.640Z,101027.16
2022-07-28T01:46:12.349Z,101029.00
2022-07-28T01:48:15.486Z,101033.47
2022-07-28T01:50:17.923Z,101036.16
2022-07-28T01:52:19.457Z,101019.81
2022-07-28T01:54:21.150Z,101027.09
2022-07-28T01:56:22.775Z,101027.94
2022-07-28T01:58:24.268Z,101019.06
2022-07-28T02:00:26.103Z,101020.88
2022-07-28T02:02:29.534Z,101018.97
2022-07-28T02:04:32.402Z,101024.25
2022-07-28T02:06:34.232Z,101016.09
2022-07-28T02:08:36.210Z,101021.44
2022-07-28T02:10:38.618Z,101021.59
2022-07-28T02:12:40.134Z,101024.25
2022-07-28T02:14:41.722Z,101012.59
2022-07-28T02:16:44.487Z,101018.13
2022-07-28T02:18:46.201Z,101007.34
2022-07-28T02:20:49.842Z,101005.56
2022-07-28T02:22:51.889Z,101003.81
2022-07-28T02:24:54.277Z,100993.88
2022-07-28T02:26:56.847Z,101000.31
2022-07-28T02:28:58.723Z,101011.28
2022-07-28T02:31:01.339Z,101008.56
2022-07-28T02:33:04.016Z,100999.41
2022-07-28T02:35:09.451Z,101000.41
2022-07-28T02:37:12.498Z,100996.88
2022-07-28T02:39:16.018Z,100999.22
2022-07-28T02:41:17.932Z,100991.22
2022-07-28T02:43:21.283Z,100997.44
2022-07-28T02:45:22.794Z,100992.06
2022-07-28T02:47:26.259Z,100982.34
2022-07-28T02:49:28.906Z,100987.63
2022-07-28T02:51:30.422Z,100991.13
2022-07-28T02:53:33.269Z,100987.47
2022-07-28T02:55:35.136Z,100991.88
2022-07-28T02:57:37.494Z,100996.38
2022-07-28T02:59:39.053Z,100994.91
2022-07-28T03:01:41.440Z,100989.53
2022-07-28T03:03:44.227Z,100991.25
2022-07-28T03:05:46.039Z,100984.97
2022-07-28T03:07:51.107Z,100994.13
2022-07-28T03:09:54.474Z,100988.72
2022-07-28T03:11:56.291Z,100981.50
2022-07-28T03:13:57.786Z,100982.28
2022-07-28T03:15:59.324Z,100987.66
2022-07-28T03:18:00.913Z,100997.44
2022-07-28T03:20:02.418Z,100988.50
2022-07-28T03:22:03.977Z,101000.19
2022-07-28T03:24:05.665Z,100993.94
2022-07-28T03:26:09.655Z,101007.53
2022-07-28T03:28:11.319Z,100998.66
2022-07-28T03:30:14.100Z,100999.63
2022-07-28T03:32:16.017Z,101001.25
2022-07-28T03:34:17.744Z,100995.81
2022-07-28T03:36:22.112Z,100990.38
2022-07-28T03:38:24.110Z,100994.94
2022-07-28T03:40:26.269Z,100985.97
2022-07-28T03:42:29.204Z,100987.91
2022-07-28T03:44:30.738Z,100989.81
2022-07-28T03:46:32.322Z,100982.44
2022-07-28T03:48:33.922Z,100984.19
2022-07-28T03:50:35.898Z,100982.63
2022-07-28T03:52:37.376Z,100992.38
2022-07-28T03:54:39.395Z,100986.03
2022-07-28T03:56:40.935Z,100986.13
2022-07-28T03:58:43.790Z,100993.38
2022-07-28T04:00:45.319Z,100991.56
2022-07-28T04:02:47.198Z,100983.44
2022-07-28T04:04:48.803Z,100996.94
2022-07-28T04:06:50.290Z,100992.41
2022-07-28T04:08:51.845Z,100987.00
2022-07-28T04:10:53.328Z,100989.78
2022-07-28T04:12:55.397Z,100993.34
2022-07-28T04:14:58.313Z,100989.72
2022-07-28T04:16:59.840Z,100989.78
2022-07-28T04:19:01.421Z,100987.97
2022-07-28T04:21:02.942Z,100996.16
2022-07-28T04:23:04.441Z,100995.13
2022-07-28T04:25:06.575Z,100995.41
2022-07-28T04:27:08.083Z,100997.19
2022-07-28T04:29:09.613Z,100987.25
2022-07-28T04:31:12.692Z,100987.19
2022-07-28T04:33:14.255Z,100994.47
2022-07-28T04:35:17.666Z,100987.34
2022-07-28T04:37:19.378Z,100981.84
2022-07-28T04:39:20.950Z,100984.63
2022-07-28T04:41:22.440Z,100983.53
2022-07-28T04:43:23.952Z,100980.97
2022-07-28T04:45:25.504Z,100984.63
2022-07-28T04:47:28.342Z,100981.88
2022-07-28T04:49:29.914Z,100977.22
2022-07-28T04:51:37.006Z,100979.16
2022-07-28T04:53:38.578Z,100982.63
2022-07-28T04:55:40.079Z,100979.09
2022-07-28T04:57:41.860Z,100982.72
2022-07-28T04:59:43.361Z,100979.09
2022-07-28T05:01:44.938Z,100983.69
2022-07-28T05:03:47.860Z,100984.34
2022-07-28T05:05:54.404Z,100979.00
2022-07-28T05:07:56.560Z,100981.81
2022-07-28T05:09:58.067Z,100977.34
2022-07-28T05:11:59.645Z,100977.13
2022-07-28T05:14:01.133Z,100972.44
2022-07-28T05:16:02.752Z,100983.53
2022-07-28T05:18:04.421Z,100979.22
2022-07-28T05:20:07.916Z,100983.69
2022-07-28T05:22:09.444Z,100980.75
2022-07-28T05:24:11.281Z,100977.03
2022-07-28T05:26:13.023Z,100980.66
2022-07-28T05:28:14.525Z,100990.56
2022-07-28T05:30:18.709Z,100984.19
2022-07-28T05:32:20.315Z,100984.06
2022-07-28T05:34:21.888Z,100976.91
2022-07-28T05:36:24.909Z,100982.13
2022-07-28T05:38:26.627Z,100976.00
2022-07-28T05:40:28.125Z,100982.09
2022-07-28T05:42:29.672Z,100981.06
2022-07-28T05:44:37.236Z,100981.91
2022-07-28T05:46:39.294Z,100982.94
2022-07-28T05:48:40.876Z,100984.66
2022-07-28T05:50:42.415Z,100975.69
2022-07-28T05:52:45.632Z,100979.66
2022-07-28T05:54:47.150Z,100983.81
2022-07-28T05:56:50.378Z,100972.28
2022-07-28T05:58:51.984Z,100978.22
2022-07-28T06:00:53.521Z,100973.00
2022-07-28T06:02:55.098Z,100974.75
2022-07-28T06:04:56.959Z,100977.47
2022-07-28T06:06:58.480Z,100978.19
2022-07-28T06:09:01.591Z,100976.31
2022-07-28T06:11:03.092Z,100975.28
2022-07-28T06:13:04.574Z,100978.72
2022-07-28T06:15:07.018Z,100976.25
2022-07-28T06:17:08.565Z,100985.34
2022-07-28T06:19:10.110Z,100977.88
2022-07-28T06:21:11.637Z,100980.09
2022-07-28T06:23:15.914Z,100974.66
2022-07-28T06:25:19.374Z,100981.38
2022-07-28T06:27:20.913Z,100980.59
2022-07-28T06:29:22.419Z,100976.34
2022-07-28T06:31:23.980Z,100982.16
2022-07-28T06:33:25.653Z,100981.25
2022-07-28T06:35:27.205Z,100983.38
2022-07-28T06:37:28.869Z,100983.25
2022-07-28T06:39:30.568Z,100985.31
2022-07-28T06:41:33.414Z,100986.22
2022-07-28T06:43:39.071Z,100980.47
2022-07-28T06:45:40.972Z,100984.50
2022-07-28T06:47:45.721Z,100976.63
2022-07-28T06:49:48.940Z,100983.66
2022-07-28T06:51:50.477Z,100983.56
2022-07-28T06:53:51.999Z,100991.53
2022-07-28T06:55:54.726Z,100983.16
2022-07-28T06:57:57.613Z,100985.53
2022-07-28T06:59:59.250Z,100991.47
2022-07-28T07:02:00.736Z,100992.03
2022-07-28T07:04:02.292Z,100988.97
2022-07-28T07:06:03.843Z,100988.50
2022-07-28T07:08:05.388Z,100982.38
2022-07-28T07:10:07.237Z,100989.06
2022-07-28T07:12:08.905Z,100986.91
2022-07-28T07:14:11.753Z,100992.72
2022-07-28T07:16:13.312Z,100993.38
2022-07-28T07:18:14.861Z,100983.22
2022-07-28T07:20:17.418Z,100997.19
2022-07-28T07:22:19.925Z,100997.13
2022-07-28T07:24:22.446Z,100995.22
2022-07-28T07:26:24.626Z,100998.25
2022-07-28T07:28:26.128Z,100995.25
2022-07-28T07:30:28.954Z,100988.88
2022-07-28T07:32:30.459Z,100998.16
2022-07-28T07:34:31.954Z,100996.56
2022-07-28T07:36:33.465Z,100993.78
2022-07-28T07:38:34.967Z,100993.78
2022-07-28T07:40:36.472Z,100993.16
2022-07-28T07:42:38.068Z,100992.50
2022-07-28T07:44:39.547Z,100986.94
2022-07-28T07:46:42.449Z,100990.63
2022-07-28T07:48:44.242Z,100986.97
2022-07-28T07:50:48.422Z,100990.41
2022-07-28T07:52:53.479Z,100989.66
2022-07-28T07:54:54.974Z,100989.16
2022-07-28T07:56:56.496Z,100990.56
2022-07-28T07:58:57.971Z,100989.22
2022-07-28T08:00:59.450Z,100984.97
2022-07-28T08:03:02.369Z,100981.41
2022-07-28T08:05:04.214Z,100987.47
2022-07-28T08:07:05.828Z,100986.84
2022-07-28T08:09:07.424Z,100986.31
2022-07-28T08:11:09.045Z,100982.47
2022-07-28T08:13:10.551Z,100975.97
2022-07-28T08:15:12.065Z,100975.94
2022-07-28T08:17:13.588Z,100983.66
2022-07-28T08:19:16.466Z,100978.28
2022-07-28T08:21:23.041Z,100975.16
2022-07-28T08:23:26.413Z,100973.00
2022-07-28T08:25:28.021Z,100976.28
2022-07-28T08:27:29.691Z,100975.81
2022-07-28T08:29:31.192Z,100975.28
2022-07-28T08:31:32.877Z,100975.97
2022-07-28T08:33:53.696Z,100970.19
2022-07-28T08:35:57.437Z,100965.09
2022-07-28T08:37:59.008Z,100963.25
2022-07-28T08:40:01.194Z,100963.72
2022-07-28T08:42:05.547Z,100963.06
2022-07-28T08:44:07.028Z,100974.75
2022-07-28T08:46:09.198Z,100974.56
2022-07-28T08:48:12.717Z,100975.75
2022-07-28T08:50:14.367Z,100968.53
2022-07-28T08:52:17.215Z,100962.09
2022-07-28T08:54:20.361Z,100962.75
2022-07-28T08:56:21.845Z,100969.16
2022-07-28T08:58:23.378Z,100966.03
2022-07-28T09:00:24.974Z,100971.13
2022-07-28T09:02:26.665Z,100964.19
2022-07-28T09:04:28.291Z,100965.22
2022-07-28T09:06:29.785Z,100969.59
2022-07-28T09:08:32.642Z,100961.34
2022-07-28T09:10:34.148Z,100962.75
2022-07-28T09:12:35.735Z,100961.00
2022-07-28T09:14:37.236Z,100957.16
2022-07-28T09:16:38.727Z,100965.44
2022-07-28T09:18:40.239Z,100956.69
2022-07-28T09:20:41.866Z,100952.31
2022-07-28T09:22:57.851Z,100957.34
2022-07-28T09:25:00.777Z,100953.25
2022-07-28T09:27:03.450Z,100954.28
2022-07-28T09:29:04.919Z,100960.22
2022-07-28T09:31:06.492Z,100958.41
2022-07-28T09:33:11.561Z,100955.91
2022-07-28T09:35:33.050Z,100950.06
2022-07-28T09:37:34.621Z,100952.31
2022-07-28T09:39:36.115Z,100944.88
2022-07-28T09:41:48.281Z,100952.75
2022-07-28T09:43:54.829Z,100942.66
2022-07-28T09:46:02.530Z,100941.84
2022-07-28T09:48:10.733Z,100944.34
2022-07-28T09:50:15.397Z,100950.16
2022-07-28T09:52:26.718Z,100946.03
2022-07-28T09:54:28.219Z,100944.06
2022-07-28T09:56:30.568Z,100934.31
2022-07-28T09:58:33.425Z,100945.56
2022-07-28T10:00:36.054Z,100933.31
2022-07-28T10:02:38.346Z,100932.91
2022-07-28T10:04:40.862Z,100936.50
2022-07-28T10:06:42.359Z,100931.09
2022-07-28T10:08:45.574Z,100925.56
2022-07-28T10:10:58.145Z,100929.56
2022-07-28T10:13:00.796Z,100934.63
2022-07-28T10:15:12.928Z,100937.97
2022-07-28T10:17:27.417Z,100928.72
2022-07-28T10:19:28.989Z,100920.63
2022-07-28T10:21:31.463Z,100936.28
2022-07-28T10:23:34.331Z,100936.81
2022-07-28T10:25:35.961Z,100930.88
2022-07-28T10:27:37.498Z,100921.53
2022-07-28T10:29:38.981Z,100919.31
2022-07-28T10:31:45.834Z,100925.41
2022-07-28T10:33:48.821Z,100918.44
2022-07-28T10:35:55.468Z,100921.91
2022-07-28T10:37:59.310Z,100922.28
2022-07-28T10:40:05.286Z,100917.53
2022-07-28T10:42:09.481Z,100916.16
2022-07-28T10:44:12.199Z,100923.72
2022-07-28T10:46:16.290Z,100915.19
2022-07-28T10:48:19.295Z,100920.66
2022-07-28T10:50:20.949Z,100922.56
2022-07-28T10:52:47.265Z,100917.06
2022-07-28T10:54:45.548Z,100913.81
2022-07-28T10:56:50.315Z,100919.63
2022-07-28T10:58:54.212Z,100909.53
2022-07-28T11:00:58.222Z,100915.69
2022-07-28T11:03:13.396Z,100905.34
2022-07-28T11:05:29.841Z,100908.47
2022-07-28T11:07:37.152Z,100912.59
2022-07-28T11:09:38.816Z,100909.00
2022-07-28T11:11:43.451Z,100910.97
2022-07-28T11:13:45.035Z,100912.44
2022-07-28T11:15:50.867Z,100922.78
2022-07-28T11:17:59.452Z,100922.25
2022-07-28T11:20:26.697Z,100917.69
2022-07-28T11:22:27.086Z,100909.44
2022-07-28T11:24:42.520Z,100896.28
2022-07-28T11:26:46.598Z,100903.31
2022-07-28T11:29:06.950Z,100900.47
2022-07-28T11:31:08.629Z,100905.53
2022-07-28T11:33:10.224Z,100898.31
2022-07-28T11:35:11.714Z,100898.50
2022-07-28T11:37:14.898Z,100896.13
2022-07-28T11:39:24.124Z,100896.22
2022-07-28T11:41:28.971Z,100905.44
2022-07-28T11:43:36.386Z,100897.38
2022-07-28T11:45:44.410Z,100901.50
2022-07-28T11:48:04.832Z,100908.41
2022-07-28T11:50:10.290Z,100890.38
2022-07-28T11:52:16.711Z,100893.59
2022-07-28T11:54:18.972Z,100894.38
2022-07-28T11:56:23.744Z,100896.34
2022-07-28T11:58:25.532Z,100896.44
2022-07-28T12:00:27.198Z,100889.16
2022-07-28T12:02:29.751Z,100894.94
2022-07-28T12:04:33.699Z,100893.47
2022-07-28T12:06:36.723Z,100896.94
2022-07-28T12:08:50.262Z,100900.91
2022-07-28T12:10:54.900Z,100883.88
2022-07-28T12:12:58.881Z,100899.06
2022-07-28T12:15:06.404Z,100894.09
2022-07-28T12:17:08.550Z,100893.13
2022-07-28T12:19:10.763Z,100895.63
2022-07-28T12:21:12.282Z,100887.38
2022-07-28T12:23:14.195Z,100892.75
2022-07-28T12:25:15.687Z,100895.69
2022-07-28T12:27:29.198Z,100892.00
2022-07-28T12:29:36.149Z,100894.16
2022-07-28T12:31:38.014Z,100879.25
2022-07-28T12:33:39.552Z,100886.69
2022-07-28T12:35:41.058Z,100883.75
2022-07-28T12:37:42.622Z,100882.09
2022-07-28T12:39:44.134Z,100884.06
2022-07-28T12:41:45.633Z,100885.94
2022-07-28T12:43:50.204Z,100889.31
2022-07-28T12:45:53.147Z,100877.44
2022-07-28T12:47:54.891Z,100883.88
2022-07-28T12:50:09.772Z,100877.47
2022-07-28T12:52:14.404Z,100883.75
2022-07-28T12:54:16.256Z,100876.53
2022-07-28T12:56:18.054Z,100874.00
2022-07-28T12:58:22.802Z,100871.50
2022-07-28T13:00:25.008Z,100882.75
2022-07-28T13:02:36.553Z,100866.28
2022-07-28T13:04:42.609Z,100875.06
2022-07-28T13:06:54.285Z,100873.38
2022-07-28T13:08:55.744Z,100869.72
2022-07-28T13:10:58.853Z,100862.97
2022-07-28T13:13:01.328Z,100864.59
2022-07-28T13:15:03.780Z,100860.47
2022-07-28T13:17:05.260Z,100866.97
2022-07-28T13:19:08.126Z,100867.53
2022-07-28T13:21:09.632Z,100864.31
2022-07-28T13:23:11.123Z,100864.81
2022-07-28T13:25:12.843Z,100872.72
2022-07-28T13:27:14.377Z,100880.25
2022-07-28T13:29:15.886Z,100869.81
2022-07-28T13:31:17.398Z,100870.81
2022-07-28T13:33:18.901Z,100872.34
2022-07-28T13:35:24.164Z,100864.09
2022-07-28T13:37:25.673Z,100865.09
2022-07-28T13:39:27.154Z,100873.81
2022-07-28T13:41:28.872Z,100871.34
2022-07-28T13:43:50.398Z,100868.44
2022-07-28T13:45:54.388Z,100868.38
2022-07-28T13:47:58.509Z,100864.91
2022-07-28T13:50:00.334Z,100867.84
2022-07-28T13:52:04.054Z,100866.16
2022-07-28T13:54:05.648Z,100860.59
2022-07-28T13:56:08.411Z,100860.75
2022-07-28T13:58:09.946Z,100869.31
2022-07-28T14:00:12.075Z,100866.31
2022-07-28T14:02:15.716Z,100851.50
2022-07-28T14:04:18.011Z,100856.16
2022-07-28T14:06:19.559Z,100855.22
2022-07-28T14:08:25.284Z,100861.22
2022-07-28T14:10:27.716Z,100861.78
2022-07-28T14:12:29.380Z,100852.78
2022-07-28T14:14:30.920Z,100865.53
2022-07-28T14:16:32.507Z,100864.22
2022-07-28T14:18:34.093Z,100857.06
2022-07-28T14:20:35.605Z,100855.13
2022-07-28T14:22:37.145Z,100858.28
2022-07-28T14:24:40.019Z,100857.00
2022-07-28T14:26:41.509Z,100854.50
2022-07-28T14:28:43.176Z,100855.50
2022-07-28T14:30:44.666Z,100852.34
2022-07-28T14:32:46.188Z,100854.72
2022-07-28T14:34:47.748Z,100846.34
2022-07-28T14:36:49.246Z,100855.41
2022-07-28T14:38:53.961Z,100849.34
2022-07-28T14:40:57.429Z,100849.00
2022-07-28T14:42:58.920Z,100852.63
2022-07-28T14:45:00.399Z,100852.88
2022-07-28T14:47:01.967Z,100848.69
2022-07-28T14:49:03.594Z,100850.88
2022-07-28T14:51:05.139Z,100850.97
2022-07-28T14:53:06.624Z,100850.97
2022-07-28T14:55:08.587Z,100856.03
2022-07-28T14:57:11.426Z,100855.09
2022-07-28T14:59:12.920Z,100853.78
2022-07-28T15:01:14.395Z,100855.09
2022-07-28T15:03:16.033Z,100852.03
2022-07-28T15:05:17.640Z,100856.53
2022-07-28T15:07:19.141Z,100863.91
2022-07-28T15:09:20.666Z,100865.34
2022-07-28T15:11:22.149Z,100855.94
2022-07-28T15:13:25.593Z,100865.53
2022-07-28T15:15:27.086Z,100865.69
2022-07-28T15:17:28.596Z,100862.78
2022-07-28T15:19:30.100Z,100869.31
2022-07-28T15:21:36.215Z,100868.44
2022-07-28T15:23:38.005Z,100868.25
2022-07-28T15:25:39.721Z,100872.25
2022-07-28T15:27:45.702Z,100865.38
2022-07-28T15:29:52.184Z,100866.91
2022-07-28T15:31:54.265Z,100858.13
2022-07-28T15:33:57.705Z,100878.13
2022-07-28T15:35:59.934Z,100875.38
2022-07-28T15:38:01.497Z,100870.00
2022-07-28T15:40:03.314Z,100875.66
2022-07-28T15:42:05.023Z,100882.53
2022-07-28T15:44:06.560Z,100880.84
2022-07-28T15:46:10.380Z,100890.50
2022-07-28T15:48:11.912Z,100880.38
2022-07-28T15:50:13.462Z,100891.06
2022-07-28T15:52:14.998Z,100884.13
2022-07-28T15:54:16.761Z,100887.25
2022-07-28T15:56:18.564Z,100881.31
2022-07-28T15:58:20.041Z,100884.56
2022-07-28T16:00:21.522Z,100886.31
2022-07-28T16:02:24.405Z,100884.28
2022-07-28T16:04:25.995Z,100883.53
2022-07-28T16:06:28.107Z,100892.13
2022-07-28T16:08:29.720Z,100884.38
2022-07-28T16:10:31.203Z,100892.56
2022-07-28T16:12:32.700Z,100891.13
2022-07-28T16:14:34.317Z,100888.56
2022-07-28T16:16:35.910Z,100888.06
2022-07-28T16:18:39.317Z,100882.41
2022-07-28T16:20:40.842Z,100879.66
2022-07-28T16:22:42.317Z,100896.25
2022-07-28T16:24:43.806Z,100883.19
2022-07-28T16:26:45.300Z,100899.63
2022-07-28T16:28:47.195Z,100895.50
2022-07-28T16:30:48.825Z,100882.81
2022-07-28T16:32:50.427Z,100896.56
2022-07-28T16:34:53.289Z,100897.69
2022-07-28T16:36:54.888Z,100897.50
2022-07-28T16:38:56.398Z,100903.47
2022-07-28T16:40:57.903Z,100892.34
2022-07-28T16:42:59.710Z,100891.06
2022-07-28T16:45:01.387Z,100894.22
2022-07-28T16:47:02.956Z,100890.53
2022-07-28T16:49:04.547Z,100896.53
2022-07-28T16:51:07.522Z,100890.22
2022-07-28T16:53:09.059Z,100896.03
2022-07-28T16:55:15.326Z,100895.94
2022-07-28T16:57:19.415Z,100895.72
2022-07-28T16:59:20.980Z,100908.69
2022-07-28T17:01:22.525Z,100899.00
2022-07-28T17:03:24.116Z,100902.38
2022-07-28T17:05:25.647Z,100898.28
2022-07-28T17:07:28.538Z,100900.56
2022-07-28T17:09:30.015Z,100900.63
2022-07-28T17:11:31.542Z,100906.00
2022-07-28T17:13:33.029Z,100898.41
2022-07-28T17:15:34.694Z,100903.78
2022-07-28T17:17:36.234Z,100903.06
2022-07-28T17:19:41.999Z,100906.38
2022-07-28T17:21:47.964Z,100911.47
2022-07-28T17:23:50.955Z,100907.34
2022-07-28T17:28:14.094Z,100900.94
2022-07-28T17:30:15.759Z,100899.78
2022-07-28T17:32:17.305Z,100901.47
2022-07-28T17:34:19.084Z,100895.34
2022-07-28T17:36:20.961Z,100902.13
2022-07-28T17:38:25.419Z,100901.97
2022-07-28T17:40:31.218Z,100910.97
2022-07-28T17:42:32.783Z,100904.88
2022-07-28T17:44:34.312Z,100898.81
2022-07-28T17:46:36.063Z,100905.97
2022-07-28T17:48:37.713Z,100902.91
2022-07-28T17:50:39.361Z,100906.22
2022-07-28T17:52:41.040Z,100908.69
2022-07-28T17:54:42.554Z,100905.84
2022-07-28T17:56:47.029Z,100902.41
2022-07-28T17:58:49.252Z,100906.16
2022-07-28T18:00:51.211Z,100908.41
2022-07-28T18:02:52.864Z,100904.16
2022-07-28T18:04:54.710Z,100913.09
2022-07-28T18:06:56.204Z,100908.97
2022-07-28T18:09:04.788Z,100909.41
2022-07-28T18:11:08.207Z,100917.00
2022-07-28T18:13:11.094Z,100914.63
2022-07-28T18:15:12.809Z,100910.56
2022-07-28T18:17:14.343Z,100912.84
2022-07-28T18:19:15.831Z,100911.25
2022-07-28T18:21:17.659Z,100914.97
2022-07-28T18:23:19.303Z,100911.19
2022-07-28T18:25:20.837Z,100922.09
2022-07-28T18:27:22.318Z,100920.34
2022-07-28T18:29:25.256Z,100920.94
2022-07-28T18:31:45.840Z,100918.22
2022-07-28T18:33:47.892Z,100922.81
2022-07-28T18:35:49.478Z,100922.03
2022-07-28T18:37:50.987Z,100927.31
2022-07-28T18:39:52.481Z,100932.53
2022-07-28T18:41:54.104Z,100937.22
2022-07-28T18:43:55.630Z,100940.50
2022-07-28T18:45:58.594Z,100934.38
2022-07-28T18:48:00.137Z,100942.97
2022-07-28T18:50:01.675Z,100944.88
2022-07-28T18:52:03.828Z,100944.25
2022-07-28T18:54:05.454Z,100945.94
2022-07-28T18:56:08.044Z,100948.00
2022-07-28T18:58:09.546Z,100942.59
2022-07-28T19:00:11.516Z,100942.16
2022-07-28T19:02:14.481Z,100942.16
2022-07-28T19:04:17.277Z,100939.38
2022-07-28T19:06:19.034Z,100943.56
2022-07-28T19:08:20.653Z,100948.56
2022-07-28T19:10:22.175Z,100950.59
2022-07-28T19:12:23.833Z,100946.28
2022-07-28T19:14:25.590Z,100941.50
2022-07-28T19:16:27.205Z,100947.16
2022-07-28T19:18:30.409Z,100948.53
2022-07-28T19:20:31.952Z,100954.47
2022-07-28T19:22:33.672Z,100955.41
2022-07-28T19:24:35.248Z,100957.50
2022-07-28T19:26:36.807Z,100952.78
2022-07-28T19:28:38.475Z,100963.84
2022-07-28T19:30:40.020Z,100958.91
2022-07-28T19:32:41.679Z,100965.38
2022-07-28T19:34:44.671Z,100966.19
2022-07-28T19:36:46.170Z,100965.53
2022-07-28T19:38:47.787Z,100965.41
2022-07-28T19:40:49.523Z,100967.41
2022-07-28T19:42:51.107Z,100970.69
2022-07-28T19:44:55.964Z,100970.78
2022-07-28T19:46:57.721Z,100979.78
2022-07-28T19:48:59.341Z,100988.50
2022-07-28T19:51:02.667Z,100978.84
2022-07-28T19:53:04.202Z,100992.81
2022-07-28T19:55:07.369Z,100997.19
2022-07-28T19:57:12.574Z,100994.88
2022-07-28T19:59:16.159Z,100995.75
2022-07-28T20:01:18.223Z,100998.94
2022-07-28T20:04:01.056Z,100999.31
2022-07-28T20:05:41.473Z,100999.69
2022-07-28T20:07:44.349Z,101002.13
2022-07-28T20:09:45.877Z,101002.06
2022-07-28T20:11:47.457Z,101007.81
2022-07-28T20:13:49.130Z,101006.16
2022-07-28T20:15:50.744Z,101010.63
2022-07-28T20:17:52.409Z,101008.94
2022-07-28T20:19:53.923Z,101015.69
2022-07-28T20:21:55.489Z,101009.53
2022-07-28T20:23:58.418Z,101015.38
2022-07-28T20:25:59.894Z,101018.47
2022-07-28T20:28:01.438Z,101016.91
2022-07-28T20:30:03.740Z,101019.34
2022-07-28T20:32:06.958Z,101021.84
2022-07-28T20:34:08.627Z,101024.88
2022-07-28T20:36:10.170Z,101027.41
2022-07-28T20:38:11.811Z,101021.84
2022-07-28T20:40:14.659Z,101021.38
2022-07-28T20:42:16.150Z,101026.59
2022-07-28T20:44:33.186Z,101024.91
2022-07-28T20:46:34.949Z,101023.66
2022-07-28T20:48:36.533Z,101025.38
2022-07-28T20:50:38.201Z,101029.94
2022-07-28T20:52:39.692Z,101021.72
2022-07-28T20:54:41.228Z,101024.84
2022-07-28T20:56:44.252Z,101030.94
2022-07-28T20:58:45.737Z,101020.44
2022-07-28T21:00:47.338Z,101029.16
2022-07-28T21:02:48.953Z,101028.41
2022-07-28T21:04:50.793Z,101032.63
2022-07-28T21:06:56.534Z,101040.50
2022-07-28T21:09:03.681Z,101033.94
2022-07-28T21:11:05.293Z,101034.91
2022-07-28T21:13:08.257Z,101035.59
2022-07-28T21:15:10.208Z,101031.66
2022-07-28T21:17:11.889Z,101033.59
2022-07-28T21:19:13.465Z,101037.53
2022-07-28T21:21:14.994Z,101035.59
2022-07-28T21:23:16.657Z,101038.38
2022-07-28T21:25:18.369Z,101043.03
2022-07-28T21:27:19.874Z,101046.50
2022-07-28T21:31:23.161Z,101048.03
2022-07-28T21:33:24.776Z,101041.09
2022-07-28T21:35:26.342Z,101046.44
2022-07-28T21:37:28.234Z,101041.72
2022-07-28T21:39:29.808Z,101047.13
2022-07-28T21:41:36.554Z,101037.53
2022-07-28T21:43:38.502Z,101041.34
2022-07-28T21:45:41.485Z,101044.00
2022-07-28T21:47:43.107Z,101047.13
2022-07-28T21:49:44.618Z,101045.28
2022-07-28T21:51:46.350Z,101046.00
2022-07-28T21:53:47.883Z,101048.78
2022-07-28T21:55:49.662Z,101049.94
2022-07-28T21:57:51.169Z,101050.78
2022-07-28T21:59:52.646Z,101044.97
2022-07-28T22:01:55.703Z,101048.78
2022-07-28T22:03:57.294Z,101053.84
2022-07-28T22:05:58.787Z,101052.38
2022-07-28T22:08:00.316Z,101054.25
2022-07-28T22:10:01.794Z,101049.91
2022-07-28T22:12:04.337Z,101040.56
2022-07-28T22:14:05.858Z,101040.59
2022-07-28T22:16:07.396Z,101044.34
2022-07-28T22:18:16.230Z,101052.38
2022-07-28T22:20:18.316Z,101049.94
2022-07-28T22:22:19.864Z,101050.84
2022-07-28T22:24:21.541Z,101056.41
2022-07-28T22:26:23.084Z,101057.34
2022-07-28T22:28:29.700Z,101055.63
2022-07-28T22:30:32.020Z,101049.75
2022-07-28T22:32:33.696Z,101053.22
2022-07-28T22:34:36.738Z,101057.50
2022-07-28T22:36:38.408Z,101058.47
2022-07-28T22:38:39.952Z,101056.25
2022-07-28T22:40:41.452Z,101049.97
2022-07-28T22:42:42.999Z,101056.69
2022-07-28T22:44:44.607Z,101061.38
2022-07-28T22:46:46.203Z,101057.50
2022-07-28T22:48:47.864Z,101053.84
2022-07-28T22:50:50.797Z,101047.41
2022-07-28T22:52:52.312Z,101046.38
2022-07-28T22:57:13.287Z,101053.78
2022-07-28T22:59:17.778Z,101057.69
2022-07-28T23:01:19.523Z,101052.78
2022-07-28T23:03:21.225Z,101058.06
2022-07-28T23:05:23.080Z,101056.16
2022-07-28T23:07:50.927Z,101050.75
2022-07-28T23:09:47.513Z,101051.97
2022-07-28T23:11:53.983Z,101047.19
2022-07-28T23:13:57.811Z,101045.16
2022-07-28T23:15:59.386Z,101049.56
2022-07-28T23:18:00.999Z,101049.63
2022-07-28T23:20:05.105Z,101048.00
2022-07-28T23:22:06.644Z,101051.59
2022-07-28T23:24:09.641Z,101047.72
2022-07-28T23:26:11.244Z,101060.31
2022-07-28T23:28:12.814Z,101056.94
2022-07-28T23:30:14.362Z,101045.09